Grand Breaker — V7XF9 — position and weather

sailwx.info

Track history (hours):
 
Tides and Currents Weather Stations Pressure Air Temp Water Temp Dewpoint Dewpoint Depression Visibility Wind Speed Wind Dir Waves Ship Positions

Grand Breaker

Last reported at 2018-Feb-16 12:45 UTC. Time now 2018-Feb-17 23:25 UTC.
Position N 36°49' W 075°48'.

Length 190 m; draft 8.8 m.

Type: Cargo ship. MMSI: 538004469.

Date/timePositionNaut miles runAvg speedWind from/ knotsBaromVisibWave heightAir tempDewpointWater temp
2018-Feb-16 12:45N 36°49' W 075°48'2 9.0
2018-Feb-16 12:29N 36°51' W 075°50'4 8.9
2018-Feb-16 11:58N 36°54' W 075°54'4 7.6
2018-Feb-16 11:29N 36°56' W 075°58'4 7.5
2018-Feb-16 11:00N 36°57' W 076°02'4 8.7
2018-Feb-16 10:30N 36°59' W 076°07'510.0
2018-Feb-16 09:58N 37°00' W 076°14'510.0
2018-Feb-16 09:28N 36°59' W 076°20'4 7.7
2018-Feb-16 09:00N 36°55' W 076°20'3 6.4
2018-Feb-16 08:30N 36°52' W 076°19'2 4.5
2018-Feb-16 08:00N 36°50' W 076°18'2 4.2
2018-Feb-16 07:30N 36°48' W 076°17'1 2.9
2018-Feb-16 07:00N 36°47' W 076°18'1 1.0
2018-Feb-16 06:28N 36°47' W 076°18'0 0.0
2018-Feb-16 05:58N 36°47' W 076°18'0 0.0
2018-Feb-16 05:28N 36°47' W 076°18'0 0.0
2018-Feb-16 04:55N 36°47' W 076°18'0 0.0
2018-Feb-16 04:28N 36°47' W 076°18'0 0.0
2018-Feb-16 03:58N 36°47' W 076°18'0 0.0
2018-Feb-16 03:28N 36°47' W 076°18'0 0.0
2018-Feb-16 02:58N 36°47' W 076°18'0 0.0
2018-Feb-16 02:28N 36°47' W 076°18'0 0.0
2018-Feb-16 01:58N 36°47' W 076°18'0 0.0
2018-Feb-16 01:28N 36°47' W 076°18'0 0.0
2018-Feb-16 00:58N 36°47' W 076°18'0 0.0
2018-Feb-16 00:28N 36°47' W 076°18'0 0.0
2018-Feb-15 23:58N 36°47' W 076°18'0 0.0
2018-Feb-15 23:16N 36°47' W 076°18'0 0.0
2018-Feb-15 22:58N 36°47' W 076°18'0 0.0
2018-Feb-15 22:28N 36°47' W 076°18'0 0.0
2018-Feb-15 21:58N 36°47' W 076°18'0 0.0
2018-Feb-15 21:28N 36°47' W 076°18'0 0.0
2018-Feb-15 20:58N 36°47' W 076°18'0 0.0
2018-Feb-15 20:28N 36°47' W 076°18'0 0.0
2018-Feb-15 19:58N 36°47' W 076°18'0 0.0
2018-Feb-15 19:28N 36°47' W 076°18'0 0.0
2018-Feb-15 18:58N 36°47' W 076°18'0 0.0
2018-Feb-15 18:28N 36°47' W 076°18'0 0.0
2018-Feb-15 17:58N 36°47' W 076°18'0 0.0
2018-Feb-15 17:28N 36°47' W 076°18'0 0.0
2018-Feb-15 16:58N 36°47' W 076°18'0 0.0
2018-Feb-15 16:28N 36°47' W 076°18'0 0.0
2018-Feb-15 15:58N 36°47' W 076°18'0 0.0
2018-Feb-15 15:28N 36°47' W 076°18'0 0.0
2018-Feb-15 14:58N 36°47' W 076°18'0 0.0
2018-Feb-15 14:28N 36°47' W 076°18'0 0.0
2018-Feb-15 13:58N 36°47' W 076°18'0 0.0
2018-Feb-15 13:28N 36°47' W 076°18'0 0.0
2018-Feb-15 12:58N 36°47' W 076°18'0 0.0
2018-Feb-15 12:28N 36°47' W 076°18'0 0.0
2018-Feb-15 11:58N 36°47' W 076°18'0 0.0
2018-Feb-15 11:28N 36°47' W 076°18'0 0.0
2018-Feb-15 10:58N 36°47' W 076°18'0 0.0
2018-Feb-15 10:28N 36°47' W 076°18'0 0.0
2018-Feb-15 09:58N 36°47' W 076°18'0 0.0
2018-Feb-15 09:25N 36°47' W 076°18'0 0.0
2018-Feb-15 08:58N 36°47' W 076°18'0 0.0
2018-Feb-15 08:28N 36°47' W 076°18'0 0.0
2018-Feb-15 07:58N 36°47' W 076°18'0 0.0
2018-Feb-15 07:28N 36°47' W 076°18'0 0.0
2018-Feb-15 06:58N 36°47' W 076°18'0 0.0
2018-Feb-15 06:25N 36°47' W 076°18'0 0.0
2018-Feb-15 05:58N 36°47' W 076°18'0 0.0
2018-Feb-15 05:28N 36°47' W 076°18'0 0.0
2018-Feb-15 04:58N 36°47' W 076°18'0 0.0
2018-Feb-15 04:28N 36°47' W 076°18'0 0.0
2018-Feb-15 03:58N 36°47' W 076°18'0 0.0
2018-Feb-15 03:28N 36°47' W 076°18'0 0.0
2018-Feb-15 02:58N 36°47' W 076°18'0 0.0
2018-Feb-15 02:28N 36°47' W 076°18'0 0.0
2018-Feb-15 01:58N 36°47' W 076°18'0 0.0
2018-Feb-15 01:28N 36°47' W 076°18'0 0.0
2018-Feb-15 00:58N 36°47' W 076°18'0 0.0
2018-Feb-15 00:28N 36°47' W 076°18'0 0.0
2018-Feb-14 23:58N 36°47' W 076°18'0 0.0
2018-Feb-14 23:28N 36°47' W 076°18'0 0.0
2018-Feb-14 22:58N 36°47' W 076°18'0 0.0
2018-Feb-14 22:28N 36°47' W 076°18'0 0.0
2018-Feb-14 21:58N 36°47' W 076°18'0 0.0
2018-Feb-14 21:28N 36°47' W 076°18'0 0.0
2018-Feb-14 20:58N 36°47' W 076°18'0 0.0
2018-Feb-14 20:28N 36°47' W 076°18'0 0.0
2018-Feb-14 19:58N 36°47' W 076°18'0 0.0
2018-Feb-14 19:28N 36°47' W 076°18'0 0.0
2018-Feb-14 18:58N 36°47' W 076°18'0 0.0
2018-Feb-14 18:28N 36°47' W 076°18'0 0.0
2018-Feb-14 17:58N 36°47' W 076°18'0 0.0
2018-Feb-14 17:28N 36°47' W 076°18'0 0.0
2018-Feb-14 16:58N 36°47' W 076°18'0 0.0
2018-Feb-14 16:28N 36°47' W 076°18'0 0.0
2018-Feb-14 15:58N 36°47' W 076°18'0 0.0
2018-Feb-14 15:28N 36°47' W 076°18'0 0.0
2018-Feb-14 14:58N 36°47' W 076°18'0 0.0
2018-Feb-14 14:28N 36°47' W 076°18'0 0.0
2018-Feb-14 13:58N 36°47' W 076°18'0 0.0
2018-Feb-14 13:28N 36°47' W 076°18'0 0.0
2018-Feb-14 12:58N 36°47' W 076°18'0 0.0
2018-Feb-14 12:28N 36°47' W 076°18'0 0.0
2018-Feb-14 11:58N 36°47' W 076°18'0 0.0
2018-Feb-14 11:28N 36°47' W 076°18'0 0.0
2018-Feb-14 10:58N 36°47' W 076°18'0 0.0
2018-Feb-14 10:28N 36°47' W 076°18'0 0.0
2018-Feb-14 09:58N 36°47' W 076°18'0 0.0
2018-Feb-14 09:28N 36°47' W 076°18'0 0.0
2018-Feb-14 08:58N 36°47' W 076°18'0 0.0
2018-Feb-14 08:28N 36°47' W 076°18'0 0.0
2018-Feb-14 07:58N 36°47' W 076°18'0 0.0
2018-Feb-14 07:28N 36°47' W 076°18'0 0.0
2018-Feb-14 06:58N 36°47' W 076°18'0 0.0
2018-Feb-14 06:28N 36°47' W 076°18'0 0.0
2018-Feb-14 05:58N 36°47' W 076°18'0 0.0
2018-Feb-14 05:28N 36°47' W 076°18'0 0.0
2018-Feb-14 04:58N 36°47' W 076°18'0 0.0
2018-Feb-14 04:28N 36°47' W 076°18'0 0.0
2018-Feb-14 03:58N 36°47' W 076°18'0 0.0
2018-Feb-14 03:28N 36°47' W 076°18'0 0.0
2018-Feb-14 02:58N 36°47' W 076°18'0 0.0
2018-Feb-14 02:28N 36°47' W 076°18'0 0.0
2018-Feb-14 01:58N 36°47' W 076°18'0 0.0
2018-Feb-14 01:28N 36°47' W 076°18'0 0.0
2018-Feb-14 00:58N 36°47' W 076°18'0 0.0
2018-Feb-14 00:28N 36°47' W 076°18'0 0.0
2018-Feb-13 23:58N 36°47' W 076°18'0 0.0
2018-Feb-13 23:28N 36°47' W 076°18'0 0.0
2018-Feb-13 22:58N 36°47' W 076°18'0 0.0
2018-Feb-13 22:28N 36°47' W 076°18'0 0.0
2018-Feb-13 21:58N 36°47' W 076°18'0 0.0
2018-Feb-13 21:28N 36°47' W 076°18'0 0.0
2018-Feb-13 20:58N 36°47' W 076°18'0 0.0
2018-Feb-13 20:28N 36°47' W 076°18'0 0.0
2018-Feb-13 19:58N 36°47' W 076°18'0 0.0
2018-Feb-13 19:28N 36°47' W 076°18'0 0.0
2018-Feb-13 18:58N 36°47' W 076°18'0 0.0
2018-Feb-13 18:25N 36°47' W 076°18'0 0.0
2018-Feb-13 17:58N 36°47' W 076°18'0 0.0
2018-Feb-13 17:28N 36°47' W 076°18'0 0.0
2018-Feb-13 16:58N 36°47' W 076°18'0 0.0
2018-Feb-13 16:28N 36°47' W 076°18'0 0.0
2018-Feb-13 15:55N 36°47' W 076°18'0 0.0
2018-Feb-13 15:28N 36°47' W 076°18'0 0.0
2018-Feb-13 14:58N 36°47' W 076°18'0 0.0
2018-Feb-13 14:28N 36°47' W 076°18'0 0.0
2018-Feb-13 13:58N 36°47' W 076°18'0 0.0
2018-Feb-13 13:28N 36°47' W 076°18'0 0.0
2018-Feb-13 12:58N 36°47' W 076°18'0 0.0
2018-Feb-13 12:28N 36°47' W 076°18'0 0.0
2018-Feb-13 11:58N 36°47' W 076°18'0 0.0
2018-Feb-13 11:28N 36°47' W 076°18'0 0.0
2018-Feb-13 10:58N 36°47' W 076°18'0 0.0
2018-Feb-13 10:28N 36°47' W 076°18'0 0.0
2018-Feb-13 09:58N 36°47' W 076°18'0 0.0
2018-Feb-13 09:28N 36°47' W 076°18'0 0.0
2018-Feb-13 08:58N 36°47' W 076°18'0 0.0
2018-Feb-13 08:28N 36°47' W 076°18'0 0.0
2018-Feb-13 07:58N 36°47' W 076°18'0 0.0
2018-Feb-13 07:28N 36°47' W 076°18'0 0.0
2018-Feb-13 06:58N 36°47' W 076°18'0 0.0
2018-Feb-13 06:28N 36°47' W 076°18'0 0.0
2018-Feb-13 05:58N 36°47' W 076°18'0 0.0
2018-Feb-13 05:28N 36°47' W 076°18'0 0.0
2018-Feb-13 04:58N 36°47' W 076°18'0 0.0
2018-Feb-13 04:28N 36°47' W 076°18'0 0.0
2018-Feb-13 03:58N 36°47' W 076°18'0 0.0
2018-Feb-13 03:28N 36°47' W 076°18'0 0.0
2018-Feb-13 02:58N 36°47' W 076°18'0 0.0
2018-Feb-13 02:28N 36°47' W 076°18'0 0.0
2018-Feb-13 01:58N 36°47' W 076°18'0 0.0
2018-Feb-13 01:28N 36°47' W 076°18'0 0.0
2018-Feb-13 00:58N 36°47' W 076°18'0 0.0
2018-Feb-13 00:28N 36°47' W 076°18'0 0.0
2018-Feb-12 23:58N 36°47' W 076°18'0 0.0
2018-Feb-12 23:28N 36°47' W 076°18'0 0.0
2018-Feb-12 22:58N 36°47' W 076°18'0 0.0
2018-Feb-12 22:28N 36°47' W 076°18'0 0.0
2018-Feb-12 21:58N 36°47' W 076°18'0 0.0
2018-Feb-12 21:28N 36°47' W 076°18'0 0.0
2018-Feb-12 20:58N 36°47' W 076°18'0 0.0
2018-Feb-12 20:28N 36°47' W 076°18'0 0.0
2018-Feb-12 19:58N 36°47' W 076°18'0 0.0
2018-Feb-12 19:28N 36°47' W 076°18'0 0.0
2018-Feb-12 18:58N 36°47' W 076°18'0 0.0
2018-Feb-12 18:28N 36°47' W 076°18'0 0.0
2018-Feb-12 17:58N 36°47' W 076°18'0 0.0
2018-Feb-12 17:28N 36°47' W 076°18'0 0.0
2018-Feb-12 16:58N 36°47' W 076°18'0 0.0
2018-Feb-12 16:28N 36°47' W 076°18'0 0.0
2018-Feb-12 15:58N 36°47' W 076°18'0 0.0
2018-Feb-12 15:16N 36°47' W 076°18'0 0.0
2018-Feb-12 14:58N 36°47' W 076°18'0 0.0
2018-Feb-12 14:28N 36°47' W 076°18'0 0.0
2018-Feb-12 13:58N 36°47' W 076°18'0 0.0
2018-Feb-12 13:28N 36°47' W 076°18'0 0.0
2018-Feb-12 12:58N 36°47' W 076°18'0 0.0
2018-Feb-12 12:28N 36°47' W 076°18'0 0.0
2018-Feb-12 11:58N 36°47' W 076°18'0 0.0
2018-Feb-12 11:28N 36°47' W 076°18'0 0.0
2018-Feb-12 10:58N 36°47' W 076°18'0 0.0
2018-Feb-12 10:28N 36°47' W 076°18'0 0.0
2018-Feb-12 09:58N 36°47' W 076°18'0 0.0
2018-Feb-12 09:28N 36°47' W 076°18'0 0.0
2018-Feb-12 08:58N 36°47' W 076°18'0 0.0
2018-Feb-12 08:28N 36°47' W 076°18'0 0.0
2018-Feb-12 07:58N 36°47' W 076°18'0 0.0
2018-Feb-12 07:28N 36°47' W 076°18'0 0.0
2018-Feb-12 06:58N 36°47' W 076°18'0 0.0
2018-Feb-12 06:28N 36°47' W 076°18'0 0.0
2018-Feb-12 05:58N 36°47' W 076°18'0 0.0
2018-Feb-12 05:28N 36°47' W 076°18'0 0.0
2018-Feb-12 04:58N 36°47' W 076°18'0 0.0
2018-Feb-12 04:28N 36°47' W 076°18'0 0.0
2018-Feb-12 03:58N 36°47' W 076°18'0 0.0
2018-Feb-12 03:28N 36°47' W 076°18'0 0.0
2018-Feb-12 02:58N 36°47' W 076°18'0 0.0
2018-Feb-12 02:28N 36°47' W 076°18'0 0.0
2018-Feb-12 01:58N 36°47' W 076°18'0 0.0
2018-Feb-12 01:28N 36°47' W 076°18'0 0.0
2018-Feb-12 00:58N 36°47' W 076°18'0 0.0
2018-Feb-12 00:28N 36°47' W 076°18'0 0.0
2018-Feb-11 23:58N 36°47' W 076°18'0 0.0
2018-Feb-11 23:28N 36°47' W 076°18'0 0.0
2018-Feb-11 22:58N 36°47' W 076°18'0 0.0
2018-Feb-11 22:28N 36°47' W 076°18'0 0.0
2018-Feb-11 21:58N 36°47' W 076°18'0 0.0
2018-Feb-11 21:30N 36°47' W 076°18'0 0.0
2018-Feb-11 20:58N 36°47' W 076°18'0 0.0
2018-Feb-11 20:28N 36°47' W 076°18'0 0.0
2018-Feb-11 19:58N 36°47' W 076°18'0 0.0
2018-Feb-11 19:28N 36°47' W 076°18'0 0.0
2018-Feb-11 18:58N 36°47' W 076°18'0 0.0
2018-Feb-11 18:28N 36°47' W 076°18'0 0.0
2018-Feb-11 17:58N 36°47' W 076°18'0 0.0
2018-Feb-11 17:31N 36°47' W 076°18'0 0.0
2018-Feb-11 17:00N 36°47' W 076°18'0 0.0
2018-Feb-11 16:28N 36°47' W 076°18'0 0.0
2018-Feb-11 15:58N 36°47' W 076°18'0 0.0
2018-Feb-11 15:28N 36°47' W 076°18'0 0.0
2018-Feb-11 15:01N 36°47' W 076°18'0 0.0
2018-Feb-11 14:28N 36°47' W 076°18'0 0.0
2018-Feb-11 13:58N 36°47' W 076°18'0 0.0
2018-Feb-11 13:31N 36°47' W 076°18'0 0.0
2018-Feb-11 13:01N 36°47' W 076°18'0 0.0
2018-Feb-11 12:28N 36°47' W 076°18'0 0.0
2018-Feb-11 12:01N 36°47' W 076°18'0 0.0
2018-Feb-11 11:30N 36°47' W 076°18'0 0.0
2018-Feb-11 11:01N 36°47' W 076°18'0 0.0
2018-Feb-11 10:27N 36°47' W 076°18'0 0.0
2018-Feb-11 10:01N 36°47' W 076°18'0 0.0
2018-Feb-11 09:30N 36°47' W 076°18'0 0.0
2018-Feb-11 09:01N 36°47' W 076°18'0 0.0
2018-Feb-11 08:28N 36°47' W 076°18'0 0.0
2018-Feb-11 08:01N 36°47' W 076°18'0 0.0
2018-Feb-11 07:30N 36°47' W 076°18'0 0.0
2018-Feb-11 07:00N 36°47' W 076°18'0 0.0
2018-Feb-11 06:30N 36°47' W 076°18'0 0.0
2018-Feb-11 05:58N 36°47' W 076°18'0 0.0
2018-Feb-11 05:31N 36°47' W 076°18'0 0.0
2018-Feb-11 05:01N 36°47' W 076°18'0 0.0
2018-Feb-11 04:31N 36°47' W 076°18'0 0.0
2018-Feb-11 04:00N 36°47' W 076°18'0 0.0
2018-Feb-11 03:30N 36°47' W 076°18'0 0.0
2018-Feb-11 03:00N 36°47' W 076°18'0 0.0
2018-Feb-11 02:30N 36°47' W 076°18'0 0.0
2018-Feb-11 02:00N 36°47' W 076°18'0 0.0
2018-Feb-11 01:30N 36°47' W 076°18'0 0.0
2018-Feb-11 01:00N 36°47' W 076°18'0 0.0
2018-Feb-11 00:30N 36°47' W 076°18'0 0.0
2018-Feb-11 00:01N 36°47' W 076°18'0 0.0
2018-Feb-10 23:30N 36°47' W 076°18'0 0.0
2018-Feb-10 23:00N 36°47' W 076°18'0 0.0
2018-Feb-10 22:30N 36°47' W 076°18'0 0.0
2018-Feb-10 22:00N 36°47' W 076°18'0 0.0
2018-Feb-10 21:30N 36°47' W 076°18'0 0.0
2018-Feb-10 21:01N 36°47' W 076°18'0 0.0
2018-Feb-10 20:30N 36°47' W 076°18'0 0.0
2018-Feb-10 20:00N 36°47' W 076°18'0 0.0
2018-Feb-10 19:30N 36°47' W 076°18'0 0.0
2018-Feb-10 19:00N 36°47' W 076°18'0 0.0
2018-Feb-10 18:30N 36°47' W 076°18'0 0.0
2018-Feb-10 18:00N 36°47' W 076°18'0 0.0
2018-Feb-10 17:30N 36°47' W 076°18'0 0.0
2018-Feb-10 17:00N 36°47' W 076°18'0 0.0
2018-Feb-10 16:30N 36°47' W 076°18'0 0.0
2018-Feb-10 16:00N 36°47' W 076°18'0 0.0
2018-Feb-10 15:30N 36°47' W 076°18'0 0.0
2018-Feb-10 15:00N 36°47' W 076°18'0 0.0
2018-Feb-10 14:30N 36°47' W 076°18'0 0.0
2018-Feb-10 14:00N 36°47' W 076°18'0 0.0
2018-Feb-10 13:30N 36°47' W 076°18'0 0.0
2018-Feb-10 13:00N 36°47' W 076°18'0 0.0
2018-Feb-10 12:30N 36°47' W 076°18'0 0.0
2018-Feb-10 12:00N 36°47' W 076°18'0 0.0
2018-Feb-10 11:30N 36°47' W 076°18'0 0.0
2018-Feb-10 11:00N 36°47' W 076°18'0 0.0
2018-Feb-10 10:30N 36°47' W 076°18'0 0.0
2018-Feb-10 10:00N 36°47' W 076°18'0 0.0
2018-Feb-10 09:31N 36°47' W 076°18'0 0.0
2018-Feb-10 09:00N 36°47' W 076°18'0 0.0
2018-Feb-10 08:30N 36°47' W 076°18'0 0.0
2018-Feb-10 08:00N 36°47' W 076°18'0 0.0
2018-Feb-10 07:30N 36°47' W 076°18'0 0.0
2018-Feb-10 07:00N 36°47' W 076°18'0 0.0
2018-Feb-10 06:30N 36°47' W 076°18'0 0.0
2018-Feb-10 06:00N 36°47' W 076°18'0 0.0
2018-Feb-10 05:30N 36°47' W 076°18'0 0.0
2018-Feb-10 05:00N 36°47' W 076°18'0 0.0
2018-Feb-10 04:30N 36°47' W 076°18'0 0.0
2018-Feb-10 04:00N 36°47' W 076°18'0 0.0
2018-Feb-10 03:30N 36°47' W 076°18'0 0.0
2018-Feb-10 03:00N 36°47' W 076°18'0 0.0
2018-Feb-10 02:30N 36°47' W 076°18'0 0.0
2018-Feb-10 02:00N 36°47' W 076°18'0 0.0
2018-Feb-10 01:27N 36°47' W 076°18'0 0.0
2018-Feb-10 01:00N 36°47' W 076°18'0 0.0
2018-Feb-10 00:30N 36°47' W 076°18'0 0.0
2018-Feb-10 00:00N 36°47' W 076°18'0 0.0
2018-Feb-09 23:30N 36°47' W 076°18'0 0.0
2018-Feb-09 23:00N 36°47' W 076°18'0 0.0
2018-Feb-09 22:45N 36°47' W 076°18'0 0.0
2018-Feb-08 01:30N 36°47' W 076°18'0 0.0
2018-Feb-08 01:00N 36°47' W 076°18'0 0.0
2018-Feb-08 00:30N 36°47' W 076°18'0 0.0
2018-Feb-08 00:00N 36°47' W 076°18'0 0.0
2018-Feb-07 23:30N 36°47' W 076°18'0 0.0
2018-Feb-07 23:00N 36°47' W 076°18'0 0.0
2018-Feb-07 22:30N 36°47' W 076°18'0 0.0
2018-Feb-07 22:00N 36°47' W 076°18'0 0.0
2018-Feb-07 21:30N 36°47' W 076°18'0 0.0
2018-Feb-07 09:30N 36°47' W 076°18'0 0.0
2018-Feb-07 09:00N 36°47' W 076°18'0 0.0
2018-Feb-07 08:30N 36°47' W 076°18'0 0.0
2018-Feb-07 08:00N 36°47' W 076°18'0 0.0
2018-Feb-07 07:30N 36°47' W 076°18'0 0.0
2018-Feb-07 07:00N 36°47' W 076°18'0 0.0
2018-Feb-07 06:30N 36°47' W 076°18'0 0.0
2018-Feb-07 06:00N 36°47' W 076°18'0 0.0
2018-Feb-07 05:30N 36°47' W 076°18'0 0.0
2018-Feb-07 05:00N 36°47' W 076°18'0 0.0
2018-Feb-07 04:30N 36°47' W 076°18'0 0.0
2018-Feb-07 04:00N 36°47' W 076°18'0 0.0
2018-Feb-07 03:30N 36°47' W 076°18'0 0.0
2018-Feb-07 03:00N 36°47' W 076°18'0 0.0
2018-Feb-07 02:30N 36°47' W 076°18'0 0.0
2018-Feb-07 02:00N 36°47' W 076°18'0 0.0
2018-Feb-07 01:30N 36°47' W 076°18'0 0.0
2018-Feb-07 01:00N 36°47' W 076°18'0 0.0
2018-Feb-07 00:30N 36°47' W 076°18'0 0.0
2018-Feb-07 00:00N 36°47' W 076°18'0 0.0
2018-Feb-06 23:30N 36°47' W 076°18'0 0.0
2018-Feb-06 23:00N 36°47' W 076°18'0 0.0
2018-Feb-06 22:30N 36°47' W 076°18'0 0.0
2018-Feb-06 22:00N 36°47' W 076°18'0 0.0
2018-Feb-06 21:30N 36°47' W 076°18'0 0.0
2018-Feb-06 21:00N 36°47' W 076°18'0 0.0
2018-Feb-06 20:30N 36°47' W 076°18'0 0.0
2018-Feb-06 20:00N 36°47' W 076°18'0 0.0
2018-Feb-06 19:30N 36°47' W 076°18'0 0.0
2018-Feb-06 19:00N 36°47' W 076°18'0 0.0
2018-Feb-06 18:30N 36°47' W 076°18'0 0.0
2018-Feb-06 18:00N 36°47' W 076°18'0 0.0
2018-Feb-06 17:30N 36°47' W 076°18'0 0.0
2018-Feb-06 17:00N 36°47' W 076°18'0 0.0
2018-Feb-06 16:30N 36°47' W 076°18'0 0.0
2018-Feb-06 16:00N 36°47' W 076°18'0 0.0
2018-Feb-06 15:30N 36°47' W 076°18'0 0.0
2018-Feb-06 15:00N 36°47' W 076°18'0 0.0
2018-Feb-06 14:30N 36°47' W 076°18'0 0.0
2018-Feb-06 14:00N 36°47' W 076°18'0 0.0
2018-Feb-06 13:30N 36°47' W 076°18'0 0.0
2018-Feb-06 13:00N 36°47' W 076°18'  
Track history (hours):
 
Tides and Currents Weather Stations Pressure Air Temp Water Temp Dewpoint Dewpoint Depression Visibility Wind Speed Wind Dir Waves Ship Positions

Grand Breaker

Last reported at 2018-Feb-16 12:45 UTC. Time now 2018-Feb-17 23:25 UTC.
Position N 36°49' W 075°48'.

Length 190 m; draft 8.8 m.

Type: Cargo ship. MMSI: 538004469.

Date/timePositionNaut miles runAvg speedWind from/ knotsBaromVisibWave heightAir tempDewpointWater temp
2018-Feb-16 12:45N 36°49' W 075°48'2 9.0
2018-Feb-16 12:29N 36°51' W 075°50'4 8.9
2018-Feb-16 11:58N 36°54' W 075°54'4 7.6
2018-Feb-16 11:29N 36°56' W 075°58'4 7.5
2018-Feb-16 11:00N 36°57' W 076°02'4 8.7
2018-Feb-16 10:30N 36°59' W 076°07'510.0
2018-Feb-16 09:58N 37°00' W 076°14'510.0
2018-Feb-16 09:28N 36°59' W 076°20'4 7.7
2018-Feb-16 09:00N 36°55' W 076°20'3 6.4
2018-Feb-16 08:30N 36°52' W 076°19'2 4.5
2018-Feb-16 08:00N 36°50' W 076°18'2 4.2
2018-Feb-16 07:30N 36°48' W 076°17'1 2.9
2018-Feb-16 07:00N 36°47' W 076°18'1 1.0
2018-Feb-16 06:28N 36°47' W 076°18'0 0.0
2018-Feb-16 05:58N 36°47' W 076°18'0 0.0
2018-Feb-16 05:28N 36°47' W 076°18'0 0.0
2018-Feb-16 04:55N 36°47' W 076°18'0 0.0
2018-Feb-16 04:28N 36°47' W 076°18'0 0.0
2018-Feb-16 03:58N 36°47' W 076°18'0 0.0
2018-Feb-16 03:28N 36°47' W 076°18'0 0.0
2018-Feb-16 02:58N 36°47' W 076°18'0 0.0
2018-Feb-16 02:28N 36°47' W 076°18'0 0.0
2018-Feb-16 01:58N 36°47' W 076°18'0 0.0
2018-Feb-16 01:28N 36°47' W 076°18'0 0.0
2018-Feb-16 00:58N 36°47' W 076°18'0 0.0
2018-Feb-16 00:28N 36°47' W 076°18'0 0.0
2018-Feb-15 23:58N 36°47' W 076°18'0 0.0
2018-Feb-15 23:16N 36°47' W 076°18'0 0.0
2018-Feb-15 22:58N 36°47' W 076°18'0 0.0
2018-Feb-15 22:28N 36°47' W 076°18'0 0.0
2018-Feb-15 21:58N 36°47' W 076°18'0 0.0
2018-Feb-15 21:28N 36°47' W 076°18'0 0.0
2018-Feb-15 20:58N 36°47' W 076°18'0 0.0
2018-Feb-15 20:28N 36°47' W 076°18'0 0.0
2018-Feb-15 19:58N 36°47' W 076°18'0 0.0
2018-Feb-15 19:28N 36°47' W 076°18'0 0.0
2018-Feb-15 18:58N 36°47' W 076°18'0 0.0
2018-Feb-15 18:28N 36°47' W 076°18'0 0.0
2018-Feb-15 17:58N 36°47' W 076°18'0 0.0
2018-Feb-15 17:28N 36°47' W 076°18'0 0.0
2018-Feb-15 16:58N 36°47' W 076°18'0 0.0
2018-Feb-15 16:28N 36°47' W 076°18'0 0.0
2018-Feb-15 15:58N 36°47' W 076°18'0 0.0
2018-Feb-15 15:28N 36°47' W 076°18'0 0.0
2018-Feb-15 14:58N 36°47' W 076°18'0 0.0
2018-Feb-15 14:28N 36°47' W 076°18'0 0.0
2018-Feb-15 13:58N 36°47' W 076°18'0 0.0
2018-Feb-15 13:28N 36°47' W 076°18'0 0.0
2018-Feb-15 12:58N 36°47' W 076°18'0 0.0
2018-Feb-15 12:28N 36°47' W 076°18'0 0.0
2018-Feb-15 11:58N 36°47' W 076°18'0 0.0
2018-Feb-15 11:28N 36°47' W 076°18'0 0.0
2018-Feb-15 10:58N 36°47' W 076°18'0 0.0
2018-Feb-15 10:28N 36°47' W 076°18'0 0.0
2018-Feb-15 09:58N 36°47' W 076°18'0 0.0
2018-Feb-15 09:25N 36°47' W 076°18'0 0.0
2018-Feb-15 08:58N 36°47' W 076°18'0 0.0
2018-Feb-15 08:28N 36°47' W 076°18'0 0.0
2018-Feb-15 07:58N 36°47' W 076°18'0 0.0
2018-Feb-15 07:28N 36°47' W 076°18'0 0.0
2018-Feb-15 06:58N 36°47' W 076°18'0 0.0
2018-Feb-15 06:25N 36°47' W 076°18'0 0.0
2018-Feb-15 05:58N 36°47' W 076°18'0 0.0
2018-Feb-15 05:28N 36°47' W 076°18'0 0.0
2018-Feb-15 04:58N 36°47' W 076°18'0 0.0
2018-Feb-15 04:28N 36°47' W 076°18'0 0.0
2018-Feb-15 03:58N 36°47' W 076°18'0 0.0
2018-Feb-15 03:28N 36°47' W 076°18'0 0.0
2018-Feb-15 02:58N 36°47' W 076°18'0 0.0
2018-Feb-15 02:28N 36°47' W 076°18'0 0.0
2018-Feb-15 01:58N 36°47' W 076°18'0 0.0
2018-Feb-15 01:28N 36°47' W 076°18'0 0.0
2018-Feb-15 00:58N 36°47' W 076°18'0 0.0
2018-Feb-15 00:28N 36°47' W 076°18'0 0.0
2018-Feb-14 23:58N 36°47' W 076°18'0 0.0
2018-Feb-14 23:28N 36°47' W 076°18'0 0.0
2018-Feb-14 22:58N 36°47' W 076°18'0 0.0
2018-Feb-14 22:28N 36°47' W 076°18'0 0.0
2018-Feb-14 21:58N 36°47' W 076°18'0 0.0
2018-Feb-14 21:28N 36°47' W 076°18'0 0.0
2018-Feb-14 20:58N 36°47' W 076°18'0 0.0
2018-Feb-14 20:28N 36°47' W 076°18'0 0.0
2018-Feb-14 19:58N 36°47' W 076°18'0 0.0
2018-Feb-14 19:28N 36°47' W 076°18'0 0.0
2018-Feb-14 18:58N 36°47' W 076°18'0 0.0
2018-Feb-14 18:28N 36°47' W 076°18'0 0.0
2018-Feb-14 17:58N 36°47' W 076°18'0 0.0
2018-Feb-14 17:28N 36°47' W 076°18'0 0.0
2018-Feb-14 16:58N 36°47' W 076°18'0 0.0
2018-Feb-14 16:28N 36°47' W 076°18'0 0.0
2018-Feb-14 15:58N 36°47' W 076°18'0 0.0
2018-Feb-14 15:28N 36°47' W 076°18'0 0.0
2018-Feb-14 14:58N 36°47' W 076°18'0 0.0
2018-Feb-14 14:28N 36°47' W 076°18'0 0.0
2018-Feb-14 13:58N 36°47' W 076°18'0 0.0
2018-Feb-14 13:28N 36°47' W 076°18'0 0.0
2018-Feb-14 12:58N 36°47' W 076°18'0 0.0
2018-Feb-14 12:28N 36°47' W 076°18'0 0.0
2018-Feb-14 11:58N 36°47' W 076°18'0 0.0
2018-Feb-14 11:28N 36°47' W 076°18'0 0.0
2018-Feb-14 10:58N 36°47' W 076°18'0 0.0
2018-Feb-14 10:28N 36°47' W 076°18'0 0.0
2018-Feb-14 09:58N 36°47' W 076°18'0 0.0
2018-Feb-14 09:28N 36°47' W 076°18'0 0.0
2018-Feb-14 08:58N 36°47' W 076°18'0 0.0
2018-Feb-14 08:28N 36°47' W 076°18'0 0.0
2018-Feb-14 07:58N 36°47' W 076°18'0 0.0
2018-Feb-14 07:28N 36°47' W 076°18'0 0.0
2018-Feb-14 06:58N 36°47' W 076°18'0 0.0
2018-Feb-14 06:28N 36°47' W 076°18'0 0.0
2018-Feb-14 05:58N 36°47' W 076°18'0 0.0
2018-Feb-14 05:28N 36°47' W 076°18'0 0.0
2018-Feb-14 04:58N 36°47' W 076°18'0 0.0
2018-Feb-14 04:28N 36°47' W 076°18'0 0.0
2018-Feb-14 03:58N 36°47' W 076°18'0 0.0
2018-Feb-14 03:28N 36°47' W 076°18'0 0.0
2018-Feb-14 02:58N 36°47' W 076°18'0 0.0
2018-Feb-14 02:28N 36°47' W 076°18'0 0.0
2018-Feb-14 01:58N 36°47' W 076°18'0 0.0
2018-Feb-14 01:28N 36°47' W 076°18'0 0.0
2018-Feb-14 00:58N 36°47' W 076°18'0 0.0
2018-Feb-14 00:28N 36°47' W 076°18'0 0.0
2018-Feb-13 23:58N 36°47' W 076°18'0 0.0
2018-Feb-13 23:28N 36°47' W 076°18'0 0.0
2018-Feb-13 22:58N 36°47' W 076°18'0 0.0
2018-Feb-13 22:28N 36°47' W 076°18'0 0.0
2018-Feb-13 21:58N 36°47' W 076°18'0 0.0
2018-Feb-13 21:28N 36°47' W 076°18'0 0.0
2018-Feb-13 20:58N 36°47' W 076°18'0 0.0
2018-Feb-13 20:28N 36°47' W 076°18'0 0.0
2018-Feb-13 19:58N 36°47' W 076°18'0 0.0
2018-Feb-13 19:28N 36°47' W 076°18'0 0.0
2018-Feb-13 18:58N 36°47' W 076°18'0 0.0
2018-Feb-13 18:25N 36°47' W 076°18'0 0.0
2018-Feb-13 17:58N 36°47' W 076°18'0 0.0
2018-Feb-13 17:28N 36°47' W 076°18'0 0.0
2018-Feb-13 16:58N 36°47' W 076°18'0 0.0
2018-Feb-13 16:28N 36°47' W 076°18'0 0.0
2018-Feb-13 15:55N 36°47' W 076°18'0 0.0
2018-Feb-13 15:28N 36°47' W 076°18'0 0.0
2018-Feb-13 14:58N 36°47' W 076°18'0 0.0
2018-Feb-13 14:28N 36°47' W 076°18'0 0.0
2018-Feb-13 13:58N 36°47' W 076°18'0 0.0
2018-Feb-13 13:28N 36°47' W 076°18'0 0.0
2018-Feb-13 12:58N 36°47' W 076°18'0 0.0
2018-Feb-13 12:28N 36°47' W 076°18'0 0.0
2018-Feb-13 11:58N 36°47' W 076°18'0 0.0
2018-Feb-13 11:28N 36°47' W 076°18'0 0.0
2018-Feb-13 10:58N 36°47' W 076°18'0 0.0
2018-Feb-13 10:28N 36°47' W 076°18'0 0.0
2018-Feb-13 09:58N 36°47' W 076°18'0 0.0
2018-Feb-13 09:28N 36°47' W 076°18'0 0.0
2018-Feb-13 08:58N 36°47' W 076°18'0 0.0
2018-Feb-13 08:28N 36°47' W 076°18'0 0.0
2018-Feb-13 07:58N 36°47' W 076°18'0 0.0
2018-Feb-13 07:28N 36°47' W 076°18'0 0.0
2018-Feb-13 06:58N 36°47' W 076°18'0 0.0
2018-Feb-13 06:28N 36°47' W 076°18'0 0.0
2018-Feb-13 05:58N 36°47' W 076°18'0 0.0
2018-Feb-13 05:28N 36°47' W 076°18'0 0.0
2018-Feb-13 04:58N 36°47' W 076°18'0 0.0
2018-Feb-13 04:28N 36°47' W 076°18'0 0.0
2018-Feb-13 03:58N 36°47' W 076°18'0 0.0
2018-Feb-13 03:28N 36°47' W 076°18'0 0.0
2018-Feb-13 02:58N 36°47' W 076°18'0 0.0
2018-Feb-13 02:28N 36°47' W 076°18'0 0.0
2018-Feb-13 01:58N 36°47' W 076°18'0 0.0
2018-Feb-13 01:28N 36°47' W 076°18'0 0.0
2018-Feb-13 00:58N 36°47' W 076°18'0 0.0
2018-Feb-13 00:28N 36°47' W 076°18'0 0.0
2018-Feb-12 23:58N 36°47' W 076°18'0 0.0
2018-Feb-12 23:28N 36°47' W 076°18'0 0.0
2018-Feb-12 22:58N 36°47' W 076°18'0 0.0
2018-Feb-12 22:28N 36°47' W 076°18'0 0.0
2018-Feb-12 21:58N 36°47' W 076°18'0 0.0
2018-Feb-12 21:28N 36°47' W 076°18'0 0.0
2018-Feb-12 20:58N 36°47' W 076°18'0 0.0
2018-Feb-12 20:28N 36°47' W 076°18'0 0.0
2018-Feb-12 19:58N 36°47' W 076°18'0 0.0
2018-Feb-12 19:28N 36°47' W 076°18'0 0.0
2018-Feb-12 18:58N 36°47' W 076°18'0 0.0
2018-Feb-12 18:28N 36°47' W 076°18'0 0.0
2018-Feb-12 17:58N 36°47' W 076°18'0 0.0
2018-Feb-12 17:28N 36°47' W 076°18'0 0.0
2018-Feb-12 16:58N 36°47' W 076°18'0 0.0
2018-Feb-12 16:28N 36°47' W 076°18'0 0.0
2018-Feb-12 15:58N 36°47' W 076°18'0 0.0
2018-Feb-12 15:16N 36°47' W 076°18'0 0.0
2018-Feb-12 14:58N 36°47' W 076°18'0 0.0
2018-Feb-12 14:28N 36°47' W 076°18'0 0.0
2018-Feb-12 13:58N 36°47' W 076°18'0 0.0
2018-Feb-12 13:28N 36°47' W 076°18'0 0.0
2018-Feb-12 12:58N 36°47' W 076°18'0 0.0
2018-Feb-12 12:28N 36°47' W 076°18'0 0.0
2018-Feb-12 11:58N 36°47' W 076°18'0 0.0
2018-Feb-12 11:28N 36°47' W 076°18'0 0.0
2018-Feb-12 10:58N 36°47' W 076°18'0 0.0
2018-Feb-12 10:28N 36°47' W 076°18'0 0.0
2018-Feb-12 09:58N 36°47' W 076°18'0 0.0
2018-Feb-12 09:28N 36°47' W 076°18'0 0.0
2018-Feb-12 08:58N 36°47' W 076°18'0 0.0
2018-Feb-12 08:28N 36°47' W 076°18'0 0.0
2018-Feb-12 07:58N 36°47' W 076°18'0 0.0
2018-Feb-12 07:28N 36°47' W 076°18'0 0.0
2018-Feb-12 06:58N 36°47' W 076°18'0 0.0
2018-Feb-12 06:28N 36°47' W 076°18'0 0.0
2018-Feb-12 05:58N 36°47' W 076°18'0 0.0
2018-Feb-12 05:28N 36°47' W 076°18'0 0.0
2018-Feb-12 04:58N 36°47' W 076°18'0 0.0
2018-Feb-12 04:28N 36°47' W 076°18'0 0.0
2018-Feb-12 03:58N 36°47' W 076°18'0 0.0
2018-Feb-12 03:28N 36°47' W 076°18'0 0.0
2018-Feb-12 02:58N 36°47' W 076°18'0 0.0
2018-Feb-12 02:28N 36°47' W 076°18'0 0.0
2018-Feb-12 01:58N 36°47' W 076°18'0 0.0
2018-Feb-12 01:28N 36°47' W 076°18'0 0.0
2018-Feb-12 00:58N 36°47' W 076°18'0 0.0
2018-Feb-12 00:28N 36°47' W 076°18'0 0.0
2018-Feb-11 23:58N 36°47' W 076°18'0 0.0
2018-Feb-11 23:28N 36°47' W 076°18'0 0.0
2018-Feb-11 22:58N 36°47' W 076°18'0 0.0
2018-Feb-11 22:28N 36°47' W 076°18'0 0.0
2018-Feb-11 21:58N 36°47' W 076°18'0 0.0
2018-Feb-11 21:30N 36°47' W 076°18'0 0.0
2018-Feb-11 20:58N 36°47' W 076°18'0 0.0
2018-Feb-11 20:28N 36°47' W 076°18'0 0.0
2018-Feb-11 19:58N 36°47' W 076°18'0 0.0
2018-Feb-11 19:28N 36°47' W 076°18'0 0.0
2018-Feb-11 18:58N 36°47' W 076°18'0 0.0
2018-Feb-11 18:28N 36°47' W 076°18'0 0.0
2018-Feb-11 17:58N 36°47' W 076°18'0 0.0
2018-Feb-11 17:31N 36°47' W 076°18'0 0.0
2018-Feb-11 17:00N 36°47' W 076°18'0 0.0
2018-Feb-11 16:28N 36°47' W 076°18'0 0.0
2018-Feb-11 15:58N 36°47' W 076°18'0 0.0
2018-Feb-11 15:28N 36°47' W 076°18'0 0.0
2018-Feb-11 15:01N 36°47' W 076°18'0 0.0
2018-Feb-11 14:28N 36°47' W 076°18'0 0.0
2018-Feb-11 13:58N 36°47' W 076°18'0 0.0
2018-Feb-11 13:31N 36°47' W 076°18'0 0.0
2018-Feb-11 13:01N 36°47' W 076°18'0 0.0
2018-Feb-11 12:28N 36°47' W 076°18'0 0.0
2018-Feb-11 12:01N 36°47' W 076°18'0 0.0
2018-Feb-11 11:30N 36°47' W 076°18'0 0.0
2018-Feb-11 11:01N 36°47' W 076°18'0 0.0
2018-Feb-11 10:27N 36°47' W 076°18'0 0.0
2018-Feb-11 10:01N 36°47' W 076°18'0 0.0
2018-Feb-11 09:30N 36°47' W 076°18'0 0.0
2018-Feb-11 09:01N 36°47' W 076°18'0 0.0
2018-Feb-11 08:28N 36°47' W 076°18'0 0.0
2018-Feb-11 08:01N 36°47' W 076°18'0 0.0
2018-Feb-11 07:30N 36°47' W 076°18'0 0.0
2018-Feb-11 07:00N 36°47' W 076°18'0 0.0
2018-Feb-11 06:30N 36°47' W 076°18'0 0.0
2018-Feb-11 05:58N 36°47' W 076°18'0 0.0
2018-Feb-11 05:31N 36°47' W 076°18'0 0.0
2018-Feb-11 05:01N 36°47' W 076°18'0 0.0
2018-Feb-11 04:31N 36°47' W 076°18'0 0.0
2018-Feb-11 04:00N 36°47' W 076°18'0 0.0
2018-Feb-11 03:30N 36°47' W 076°18'0 0.0
2018-Feb-11 03:00N 36°47' W 076°18'0 0.0
2018-Feb-11 02:30N 36°47' W 076°18'0 0.0
2018-Feb-11 02:00N 36°47' W 076°18'0 0.0
2018-Feb-11 01:30N 36°47' W 076°18'0 0.0
2018-Feb-11 01:00N 36°47' W 076°18'0 0.0
2018-Feb-11 00:30N 36°47' W 076°18'0 0.0
2018-Feb-11 00:01N 36°47' W 076°18'0 0.0
2018-Feb-10 23:30N 36°47' W 076°18'0 0.0
2018-Feb-10 23:00N 36°47' W 076°18'0 0.0
2018-Feb-10 22:30N 36°47' W 076°18'0 0.0
2018-Feb-10 22:00N 36°47' W 076°18'0 0.0
2018-Feb-10 21:30N 36°47' W 076°18'0 0.0
2018-Feb-10 21:01N 36°47' W 076°18'0 0.0
2018-Feb-10 20:30N 36°47' W 076°18'0 0.0
2018-Feb-10 20:00N 36°47' W 076°18'0 0.0
2018-Feb-10 19:30N 36°47' W 076°18'0 0.0
2018-Feb-10 19:00N 36°47' W 076°18'0 0.0
2018-Feb-10 18:30N 36°47' W 076°18'0 0.0
2018-Feb-10 18:00N 36°47' W 076°18'0 0.0
2018-Feb-10 17:30N 36°47' W 076°18'0 0.0
2018-Feb-10 17:00N 36°47' W 076°18'0 0.0
2018-Feb-10 16:30N 36°47' W 076°18'0 0.0
2018-Feb-10 16:00N 36°47' W 076°18'0 0.0
2018-Feb-10 15:30N 36°47' W 076°18'0 0.0
2018-Feb-10 15:00N 36°47' W 076°18'0 0.0
2018-Feb-10 14:30N 36°47' W 076°18'0 0.0
2018-Feb-10 14:00N 36°47' W 076°18'0 0.0
2018-Feb-10 13:30N 36°47' W 076°18'0 0.0
2018-Feb-10 13:00N 36°47' W 076°18'0 0.0
2018-Feb-10 12:30N 36°47' W 076°18'0 0.0
2018-Feb-10 12:00N 36°47' W 076°18'0 0.0
2018-Feb-10 11:30N 36°47' W 076°18'0 0.0
2018-Feb-10 11:00N 36°47' W 076°18'0 0.0
2018-Feb-10 10:30N 36°47' W 076°18'0 0.0
2018-Feb-10 10:00N 36°47' W 076°18'0 0.0
2018-Feb-10 09:31N 36°47' W 076°18'0 0.0
2018-Feb-10 09:00N 36°47' W 076°18'0 0.0
2018-Feb-10 08:30N 36°47' W 076°18'0 0.0
2018-Feb-10 08:00N 36°47' W 076°18'0 0.0
2018-Feb-10 07:30N 36°47' W 076°18'0 0.0
2018-Feb-10 07:00N 36°47' W 076°18'0 0.0
2018-Feb-10 06:30N 36°47' W 076°18'0 0.0
2018-Feb-10 06:00N 36°47' W 076°18'0 0.0
2018-Feb-10 05:30N 36°47' W 076°18'0 0.0
2018-Feb-10 05:00N 36°47' W 076°18'0 0.0
2018-Feb-10 04:30N 36°47' W 076°18'0 0.0
2018-Feb-10 04:00N 36°47' W 076°18'0 0.0
2018-Feb-10 03:30N 36°47' W 076°18'0 0.0
2018-Feb-10 03:00N 36°47' W 076°18'0 0.0
2018-Feb-10 02:30N 36°47' W 076°18'0 0.0
2018-Feb-10 02:00N 36°47' W 076°18'0 0.0
2018-Feb-10 01:27N 36°47' W 076°18'0 0.0
2018-Feb-10 01:00N 36°47' W 076°18'0 0.0
2018-Feb-10 00:30N 36°47' W 076°18'0 0.0
2018-Feb-10 00:00N 36°47' W 076°18'0 0.0
2018-Feb-09 23:30N 36°47' W 076°18'0 0.0
2018-Feb-09 23:00N 36°47' W 076°18'0 0.0
2018-Feb-09 22:45N 36°47' W 076°18'0 0.0
2018-Feb-08 01:30N 36°47' W 076°18'0 0.0
2018-Feb-08 01:00N 36°47' W 076°18'0 0.0
2018-Feb-08 00:30N 36°47' W 076°18'0 0.0
2018-Feb-08 00:00N 36°47' W 076°18'0 0.0
2018-Feb-07 23:30N 36°47' W 076°18'0 0.0
2018-Feb-07 23:00N 36°47' W 076°18'0 0.0
2018-Feb-07 22:30N 36°47' W 076°18'0 0.0
2018-Feb-07 22:00N 36°47' W 076°18'0 0.0
2018-Feb-07 21:30N 36°47' W 076°18'0 0.0
2018-Feb-07 09:30N 36°47' W 076°18'0 0.0
2018-Feb-07 09:00N 36°47' W 076°18'0 0.0
2018-Feb-07 08:30N 36°47' W 076°18'0 0.0
2018-Feb-07 08:00N 36°47' W 076°18'0 0.0
2018-Feb-07 07:30N 36°47' W 076°18'0 0.0
2018-Feb-07 07:00N 36°47' W 076°18'0 0.0
2018-Feb-07 06:30N 36°47' W 076°18'0 0.0
2018-Feb-07 06:00N 36°47' W 076°18'0 0.0
2018-Feb-07 05:30N 36°47' W 076°18'0 0.0
2018-Feb-07 05:00N 36°47' W 076°18'0 0.0
2018-Feb-07 04:30N 36°47' W 076°18'0 0.0
2018-Feb-07 04:00N 36°47' W 076°18'0 0.0
2018-Feb-07 03:30N 36°47' W 076°18'0 0.0
2018-Feb-07 03:00N 36°47' W 076°18'0 0.0
2018-Feb-07 02:30N 36°47' W 076°18'0 0.0
2018-Feb-07 02:00N 36°47' W 076°18'0 0.0
2018-Feb-07 01:30N 36°47' W 076°18'0 0.0
2018-Feb-07 01:00N 36°47' W 076°18'0 0.0
2018-Feb-07 00:30N 36°47' W 076°18'0 0.0
2018-Feb-07 00:00N 36°47' W 076°18'0 0.0
2018-Feb-06 23:30N 36°47' W 076°18'0 0.0
2018-Feb-06 23:00N 36°47' W 076°18'0 0.0
2018-Feb-06 22:30N 36°47' W 076°18'0 0.0
2018-Feb-06 22:00N 36°47' W 076°18'0 0.0
2018-Feb-06 21:30N 36°47' W 076°18'0 0.0
2018-Feb-06 21:00N 36°47' W 076°18'0 0.0
2018-Feb-06 20:30N 36°47' W 076°18'0 0.0
2018-Feb-06 20:00N 36°47' W 076°18'0 0.0
2018-Feb-06 19:30N 36°47' W 076°18'0 0.0
2018-Feb-06 19:00N 36°47' W 076°18'0 0.0
2018-Feb-06 18:30N 36°47' W 076°18'0 0.0
2018-Feb-06 18:00N 36°47' W 076°18'0 0.0
2018-Feb-06 17:30N 36°47' W 076°18'0 0.0
2018-Feb-06 17:00N 36°47' W 076°18'0 0.0
2018-Feb-06 16:30N 36°47' W 076°18'0 0.0
2018-Feb-06 16:00N 36°47' W 076°18'0 0.0
2018-Feb-06 15:30N 36°47' W 076°18'0 0.0
2018-Feb-06 15:00N 36°47' W 076°18'0 0.0
2018-Feb-06 14:30N 36°47' W 076°18'0 0.0
2018-Feb-06 14:00N 36°47' W 076°18'0 0.0
2018-Feb-06 13:30N 36°47' W 076°18'0 0.0
2018-Feb-06 13:00N 36°47' W 076°18'  

Dump ship's entire track history